createdAt,value
2022-10-10T00:01:16.999Z,8.20
2022-10-10T00:03:45.661Z,8.10
2022-10-10T00:06:14.713Z,8.10
2022-10-10T00:08:43.575Z,8.10
2022-10-10T00:11:12.843Z,8.10
2022-10-10T00:13:41.243Z,8.10
2022-10-10T00:16:10.076Z,8.10
2022-10-10T00:18:40.638Z,8.10
2022-10-10T00:21:09.797Z,8.10
2022-10-10T00:23:38.721Z,8.00
2022-10-10T00:26:09.198Z,8.00
2022-10-10T00:28:39.255Z,8.00
2022-10-10T00:31:08.452Z,8.00
2022-10-10T00:33:36.629Z,8.00
2022-10-10T00:36:07.518Z,7.90
2022-10-10T00:38:36.422Z,7.90
2022-10-10T00:41:05.221Z,8.00
2022-10-10T00:43:34.655Z,8.00
2022-10-10T00:46:03.008Z,7.90
2022-10-10T00:48:33.569Z,7.90
2022-10-10T00:51:04.314Z,7.90
2022-10-10T00:53:37.438Z,7.80
2022-10-10T00:56:06.675Z,7.80
2022-10-10T00:58:37.509Z,7.70
2022-10-10T01:01:06.084Z,7.70
2022-10-10T01:03:34.248Z,7.70
2022-10-10T01:06:02.497Z,7.70
2022-10-10T01:08:30.707Z,7.70
2022-10-10T01:11:18.710Z,7.70
2022-10-10T01:13:57.482Z,7.70
2022-10-10T01:16:34.374Z,7.70
2022-10-10T01:19:22.157Z,7.70
2022-10-10T01:22:00.674Z,7.70
2022-10-10T01:24:54.525Z,7.70
2022-10-10T01:27:31.491Z,7.70
2022-10-10T01:30:07.144Z,7.60
2022-10-10T01:32:40.792Z,7.60
2022-10-10T01:35:28.270Z,7.60
2022-10-10T01:38:06.373Z,7.60
2022-10-10T01:40:40.070Z,7.60
2022-10-10T01:43:09.956Z,7.50
2022-10-10T01:45:44.206Z,7.60
2022-10-10T01:48:12.632Z,7.60
2022-10-10T01:50:58.494Z,7.60
2022-10-10T01:53:37.486Z,7.60
2022-10-10T01:56:11.450Z,7.60
2022-10-10T01:59:17.171Z,7.50
2022-10-10T02:01:53.830Z,7.50
2022-10-10T02:04:30.379Z,7.40
2022-10-10T02:07:03.400Z,7.40
2022-10-10T02:09:36.889Z,7.40
2022-10-10T02:12:06.718Z,7.40
2022-10-10T02:14:39.702Z,7.40
2022-10-10T02:17:11.977Z,7.40
2022-10-10T02:19:46.990Z,7.30
2022-10-10T02:22:15.408Z,7.30
2022-10-10T02:24:43.859Z,7.20
2022-10-10T02:27:15.970Z,7.20
2022-10-10T02:29:46.454Z,7.20
2022-10-10T02:32:21.301Z,7.20
2022-10-10T02:34:53.121Z,7.20
2022-10-10T02:37:23.071Z,7.20
2022-10-10T02:39:57.472Z,7.20
2022-10-10T02:42:27.006Z,7.20
2022-10-10T02:44:56.206Z,7.10
2022-10-10T02:47:26.013Z,7.10
2022-10-10T02:49:54.368Z,7.10
2022-10-10T02:52:22.489Z,7.00
2022-10-10T02:54:50.741Z,7.00
2022-10-10T02:57:18.717Z,7.00
2022-10-10T02:59:47.110Z,7.00
2022-10-10T03:02:15.094Z,7.00
2022-10-10T03:04:44.968Z,7.00
2022-10-10T03:07:13.248Z,7.00
2022-10-10T03:09:41.483Z,6.90
2022-10-10T03:12:09.560Z,6.90
2022-10-10T03:14:37.593Z,6.80
2022-10-10T03:17:05.819Z,6.80
2022-10-10T03:19:34.309Z,6.80
2022-10-10T03:22:03.860Z,6.80
2022-10-10T03:24:31.956Z,6.80
2022-10-10T03:27:01.252Z,6.80
2022-10-10T03:29:29.273Z,6.80
2022-10-10T03:31:57.376Z,6.70
2022-10-10T03:34:25.506Z,6.70
2022-10-10T03:36:53.701Z,6.70
2022-10-10T03:39:23.167Z,6.70
2022-10-10T03:41:51.540Z,6.70
2022-10-10T03:44:19.655Z,6.70
2022-10-10T03:46:47.784Z,6.60
2022-10-10T03:49:16.259Z,6.60
2022-10-10T03:51:44.255Z,6.60
2022-10-10T03:54:12.218Z,6.60
2022-10-10T03:56:42.368Z,6.60
2022-10-10T03:59:10.288Z,6.60
2022-10-10T04:01:38.473Z,6.60
2022-10-10T04:04:06.479Z,6.50
2022-10-10T04:06:34.808Z,6.50
2022-10-10T04:09:02.902Z,6.50
2022-10-10T04:11:31.238Z,6.50
2022-10-10T04:14:00.626Z,6.50
2022-10-10T04:16:28.923Z,6.50
2022-10-10T04:18:56.889Z,6.40
2022-10-10T04:21:24.916Z,6.40
2022-10-10T04:23:52.949Z,6.40
2022-10-10T04:26:21.102Z,6.50
2022-10-10T04:28:49.229Z,6.50
2022-10-10T04:31:18.644Z,6.50
2022-10-10T04:33:46.585Z,6.50
2022-10-10T04:36:14.660Z,6.60
2022-10-10T04:38:43.270Z,6.50
2022-10-10T04:41:11.856Z,6.50
2022-10-10T04:43:39.770Z,6.50
2022-10-10T04:46:08.084Z,6.40
2022-10-10T04:48:37.984Z,6.30
2022-10-10T04:51:06.490Z,6.30
2022-10-10T04:53:34.512Z,6.30
2022-10-10T04:56:02.642Z,6.30
2022-10-10T04:58:30.789Z,6.20
2022-10-10T05:00:58.830Z,6.20
2022-10-10T05:03:26.928Z,6.20
2022-10-10T05:05:56.336Z,6.20
2022-10-10T05:08:24.383Z,6.20
2022-10-10T05:10:54.433Z,6.10
2022-10-10T05:13:22.845Z,6.10
2022-10-10T05:15:52.198Z,6.10
2022-10-10T05:18:20.752Z,6.10
2022-10-10T05:20:49.992Z,6.00
2022-10-10T05:23:19.326Z,6.00
2022-10-10T05:25:50.698Z,6.00
2022-10-10T05:28:19.503Z,6.00
2022-10-10T05:30:47.591Z,6.00
2022-10-10T05:33:15.739Z,6.00
2022-10-10T05:35:43.986Z,5.90
2022-10-10T05:38:12.159Z,5.90
2022-10-10T05:40:42.210Z,5.90
2022-10-10T05:43:10.714Z,5.90
2022-10-10T05:45:38.618Z,5.90
2022-10-10T05:48:06.892Z,5.90
2022-10-10T05:50:38.527Z,5.90
2022-10-10T05:53:07.693Z,5.90
2022-10-10T05:55:36.657Z,5.90
2022-10-10T05:58:07.104Z,6.00
2022-10-10T06:00:36.505Z,6.00
2022-10-10T06:03:04.861Z,6.00
2022-10-10T06:05:33.202Z,6.00
2022-10-10T06:08:10.483Z,6.10
2022-10-10T06:10:42.124Z,6.10
2022-10-10T06:13:12.407Z,6.20
2022-10-10T06:15:40.663Z,6.20
2022-10-10T06:18:09.658Z,6.20
2022-10-10T06:20:38.165Z,6.20
2022-10-10T06:23:07.693Z,6.30
2022-10-10T06:25:41.683Z,6.30
2022-10-10T06:28:12.634Z,6.40
2022-10-10T06:30:42.180Z,6.50
2022-10-10T06:33:10.655Z,6.60
2022-10-10T06:35:43.485Z,6.70
2022-10-10T06:38:12.658Z,6.70
2022-10-10T06:40:41.025Z,6.80
2022-10-10T06:43:12.526Z,7.00
2022-10-10T06:45:43.447Z,7.50
2022-10-10T06:48:13.022Z,8.40
2022-10-10T06:50:41.086Z,9.20
2022-10-10T06:53:09.405Z,9.90
2022-10-10T06:55:37.742Z,10.40
2022-10-10T06:58:07.264Z,10.70
2022-10-10T07:00:36.943Z,10.60
2022-10-10T07:03:04.993Z,10.40
2022-10-10T07:05:33.268Z,10.10
2022-10-10T07:08:01.217Z,9.90
2022-10-10T07:10:29.413Z,9.80
2022-10-10T07:12:57.610Z,9.50
2022-10-10T07:15:25.790Z,9.30
2022-10-10T07:17:59.761Z,9.30
2022-10-10T07:20:28.385Z,9.30
2022-10-10T07:22:56.479Z,9.20
2022-10-10T07:25:25.495Z,9.20
2022-10-10T07:27:53.574Z,9.10
2022-10-10T07:30:21.618Z,9.20
2022-10-10T07:32:50.064Z,9.20
2022-10-10T07:35:20.036Z,9.20
2022-10-10T07:37:48.221Z,9.40
2022-10-10T07:40:16.385Z,9.40
2022-10-10T07:42:44.631Z,9.60
2022-10-10T07:45:12.983Z,9.70
2022-10-10T07:47:41.214Z,9.80
2022-10-10T07:50:09.886Z,10.00
2022-10-10T07:52:39.679Z,10.20
2022-10-10T07:55:09.295Z,10.30
2022-10-10T07:57:37.748Z,10.40
2022-10-10T08:00:07.547Z,10.60
2022-10-10T08:02:42.419Z,10.80
2022-10-10T08:05:12.520Z,11.10
2022-10-10T08:07:41.872Z,11.20
2022-10-10T08:10:11.106Z,11.50
2022-10-10T08:12:39.127Z,12.20
2022-10-10T08:15:08.133Z,12.70
2022-10-10T08:17:36.156Z,13.20
2022-10-10T08:20:04.531Z,13.50
2022-10-10T08:22:32.754Z,13.70
2022-10-10T08:25:02.311Z,13.90
2022-10-10T08:27:30.330Z,14.00
2022-10-10T08:29:58.764Z,14.30
2022-10-10T08:32:26.926Z,14.60
2022-10-10T08:34:55.035Z,14.60
2022-10-10T08:37:28.439Z,14.70
2022-10-10T08:39:58.875Z,15.10
2022-10-10T08:42:33.372Z,15.40
2022-10-10T08:45:05.885Z,15.50
2022-10-10T08:47:40.118Z,16.10
2022-10-10T08:50:17.586Z,16.90
2022-10-10T08:52:50.021Z,17.70
2022-10-10T08:55:22.867Z,19.00
2022-10-10T08:57:55.622Z,19.60
2022-10-10T09:00:26.976Z,19.80
2022-10-10T09:02:58.203Z,19.70
2022-10-10T09:05:42.368Z,19.10
2022-10-10T09:08:36.111Z,19.10
2022-10-10T09:11:11.216Z,19.50
2022-10-10T09:19:38.559Z,20.50
2022-10-10T09:22:12.277Z,21.30
2022-10-10T09:24:46.677Z,22.00
2022-10-10T09:27:18.298Z,23.20
2022-10-10T09:29:52.351Z,24.90
2022-10-10T09:32:27.214Z,26.10
2022-10-10T09:35:01.265Z,28.30
2022-10-10T09:37:46.855Z,30.80
2022-10-10T09:40:29.943Z,32.30
2022-10-10T09:45:53.158Z,35.90
2022-10-10T09:48:23.362Z,37.10
2022-10-10T09:50:52.918Z,36.90
2022-10-10T09:53:21.010Z,38.40
2022-10-10T09:55:50.949Z,37.70
2022-10-10T09:58:28.794Z,36.40
2022-10-10T10:01:10.948Z,34.30
2022-10-10T10:03:39.181Z,33.50
2022-10-10T10:06:13.942Z,34.40
2022-10-10T10:08:46.774Z,35.90
2022-10-10T10:11:29.873Z,37.00
2022-10-10T10:14:02.204Z,37.50
2022-10-10T10:16:35.681Z,38.10
2022-10-10T10:19:04.249Z,36.00
2022-10-10T10:21:48.065Z,33.80
2022-10-10T10:24:22.797Z,32.00
2022-10-10T10:26:51.518Z,29.70
2022-10-10T10:29:30.673Z,29.10
2022-10-10T10:32:06.510Z,28.10
2022-10-10T10:34:57.908Z,27.50
2022-10-10T10:37:32.655Z,26.50
2022-10-10T10:40:25.159Z,26.70
2022-10-10T10:43:33.632Z,27.90
2022-10-10T10:46:15.876Z,29.40
2022-10-10T10:48:46.933Z,30.40
2022-10-10T10:51:44.701Z,29.60
2022-10-10T10:54:27.224Z,30.50
2022-10-10T10:57:06.890Z,32.20
2022-10-10T11:00:25.645Z,33.30
2022-10-10T11:02:59.321Z,33.40
2022-10-10T11:05:41.621Z,35.60
2022-10-10T11:08:31.383Z,36.00
2022-10-10T11:11:15.417Z,35.90
2022-10-10T11:13:53.030Z,36.70
2022-10-10T11:16:43.934Z,37.60
2022-10-10T11:19:23.802Z,38.30
2022-10-10T11:21:58.960Z,39.20
2022-10-10T11:24:36.396Z,39.80
2022-10-10T11:27:11.978Z,39.90
2022-10-10T11:29:52.263Z,40.00
2022-10-10T11:32:27.554Z,39.10
2022-10-10T11:35:04.777Z,39.10
2022-10-10T11:37:38.360Z,38.50
2022-10-10T11:40:07.494Z,37.10
2022-10-10T11:42:47.575Z,36.30
2022-10-10T11:45:17.846Z,36.60
2022-10-10T11:47:53.612Z,36.90
2022-10-10T11:50:27.476Z,36.90
2022-10-10T11:53:03.245Z,36.90
2022-10-10T11:55:38.781Z,36.20
2022-10-10T11:58:29.013Z,35.30
2022-10-10T12:01:01.665Z,35.10
2022-10-10T12:03:29.773Z,35.60
2022-10-10T12:06:04.885Z,35.40
2022-10-10T12:08:38.538Z,34.80
2022-10-10T12:11:16.979Z,34.70
2022-10-10T12:13:48.966Z,34.60
2022-10-10T12:16:23.275Z,34.50
2022-10-10T12:18:55.525Z,34.00
2022-10-10T12:21:26.697Z,33.30
2022-10-10T12:24:04.424Z,32.60
2022-10-10T12:27:09.823Z,32.20
2022-10-10T12:29:47.754Z,32.40
2022-10-10T12:32:27.516Z,31.70
2022-10-10T12:35:01.168Z,31.60
2022-10-10T12:37:31.143Z,31.30
2022-10-10T12:40:21.879Z,30.90
2022-10-10T12:43:05.651Z,29.80
2022-10-10T12:46:09.115Z,28.90
2022-10-10T12:48:37.811Z,28.20
2022-10-10T12:51:06.663Z,27.20
2022-10-10T12:53:35.497Z,26.40
2022-10-10T12:56:04.698Z,26.60
2022-10-10T12:58:34.813Z,26.80
2022-10-10T13:01:07.658Z,26.60
2022-10-10T13:03:41.077Z,26.40
2022-10-10T13:06:22.378Z,26.30
2022-10-10T13:08:51.811Z,26.00
2022-10-10T13:11:19.835Z,25.70
2022-10-10T13:13:51.709Z,25.40
2022-10-10T13:16:23.464Z,25.20
2022-10-10T13:18:53.367Z,25.00
2022-10-10T13:21:23.569Z,24.60
2022-10-10T13:26:46.828Z,23.70
2022-10-10T13:29:23.608Z,23.60
2022-10-10T13:31:55.200Z,23.30
2022-10-10T13:34:27.650Z,23.10
2022-10-10T13:36:58.250Z,22.90
2022-10-10T13:39:28.374Z,22.70
2022-10-10T13:41:56.995Z,22.40
2022-10-10T13:44:27.281Z,22.20
2022-10-10T13:46:58.802Z,21.80
2022-10-10T13:49:28.458Z,21.50
2022-10-10T13:52:06.166Z,21.30
2022-10-10T13:54:38.865Z,20.90
2022-10-10T13:57:12.599Z,20.70
2022-10-10T13:59:40.794Z,20.60
2022-10-10T14:02:14.549Z,20.30
2022-10-10T14:04:48.238Z,20.10
2022-10-10T14:07:21.116Z,20.00
2022-10-10T14:09:54.254Z,19.70
2022-10-10T14:12:28.709Z,19.60
2022-10-10T14:14:59.250Z,19.30
2022-10-10T14:17:29.901Z,19.20
2022-10-10T14:19:58.567Z,19.10
2022-10-10T14:22:27.633Z,18.90
2022-10-10T14:24:55.661Z,18.70
2022-10-10T14:27:26.894Z,18.60
2022-10-10T14:29:56.779Z,18.40
2022-10-10T14:32:25.576Z,18.30
2022-10-10T14:34:54.897Z,18.20
2022-10-10T14:37:26.640Z,18.10
2022-10-10T14:39:55.538Z,18.00
2022-10-10T14:42:25.210Z,17.90
2022-10-10T14:44:53.401Z,17.90
2022-10-10T14:47:23.621Z,17.80
2022-10-10T14:49:52.716Z,17.70
2022-10-10T14:52:22.220Z,17.70
2022-10-10T14:54:50.243Z,17.70
2022-10-10T14:57:18.264Z,17.60
2022-10-10T14:59:49.136Z,17.50
2022-10-10T15:02:22.967Z,17.40
2022-10-10T15:04:51.919Z,17.30
2022-10-10T15:07:21.702Z,17.20
2022-10-10T15:10:27.529Z,17.10
2022-10-10T15:12:42.164Z,17.10
2022-10-10T15:15:12.112Z,17.00
2022-10-10T15:17:41.128Z,17.00
2022-10-10T15:20:11.866Z,16.90
2022-10-10T15:22:41.508Z,16.70
2022-10-10T15:25:10.743Z,16.50
2022-10-10T15:27:39.105Z,16.40
2022-10-10T15:30:09.005Z,16.20
2022-10-10T15:32:40.175Z,16.10
2022-10-10T15:35:09.405Z,15.90
2022-10-10T15:37:37.518Z,15.80
2022-10-10T15:40:07.897Z,15.70
2022-10-10T15:42:35.957Z,15.50
2022-10-10T15:45:04.076Z,15.40
2022-10-10T15:47:32.497Z,15.30
2022-10-10T15:50:01.121Z,15.20
2022-10-10T15:52:29.273Z,15.10
2022-10-10T15:54:57.793Z,15.00
2022-10-10T15:57:27.447Z,14.90
2022-10-10T15:59:55.893Z,14.80
2022-10-10T16:02:24.177Z,14.70
2022-10-10T16:04:52.328Z,14.60
2022-10-10T16:07:28.175Z,14.50
2022-10-10T16:09:57.901Z,14.50
2022-10-10T16:12:27.407Z,14.30
2022-10-10T16:14:55.442Z,14.20
2022-10-10T16:17:23.932Z,14.10
2022-10-10T16:19:52.531Z,14.00
2022-10-10T16:22:21.306Z,14.00
2022-10-10T16:25:10.176Z,13.90
2022-10-10T16:27:39.318Z,13.80
2022-10-10T16:30:08.795Z,13.70
2022-10-10T16:32:42.159Z,13.70
2022-10-10T16:35:11.355Z,13.70
2022-10-10T16:37:39.672Z,13.60
2022-10-10T16:40:08.768Z,13.50
2022-10-10T16:42:38.267Z,13.50
2022-10-10T16:45:07.553Z,13.50
2022-10-10T16:47:35.840Z,13.40
2022-10-10T16:50:05.141Z,13.40
2022-10-10T16:52:37.845Z,13.40
2022-10-10T16:55:07.537Z,13.40
2022-10-10T16:57:35.853Z,13.40
2022-10-10T17:00:06.654Z,13.40
2022-10-10T17:02:34.766Z,13.40
2022-10-10T17:05:02.792Z,13.40
2022-10-10T17:07:30.855Z,13.40
2022-10-10T17:09:58.840Z,13.30
2022-10-10T17:12:27.044Z,13.30
2022-10-10T17:14:55.017Z,13.30
2022-10-10T17:17:24.458Z,13.20
2022-10-10T17:19:52.485Z,13.20
2022-10-10T17:22:20.539Z,13.10
2022-10-10T17:24:48.569Z,13.00
2022-10-10T17:27:19.487Z,13.00
2022-10-10T17:29:47.724Z,12.90
2022-10-10T17:32:15.786Z,12.90
2022-10-10T17:34:45.137Z,12.90
2022-10-10T17:37:13.294Z,12.90
2022-10-10T17:39:41.332Z,12.80
2022-10-10T17:42:09.425Z,12.80
2022-10-10T17:44:44.716Z,12.70
2022-10-10T17:47:13.372Z,12.50
2022-10-10T17:49:46.653Z,12.40
2022-10-10T17:52:20.947Z,12.30
2022-10-10T17:54:49.871Z,12.20
2022-10-10T17:57:18.347Z,12.00
2022-10-10T17:59:46.635Z,11.90
2022-10-10T18:02:17.139Z,11.80
2022-10-10T18:04:45.986Z,11.60
2022-10-10T18:07:16.238Z,11.50
2022-10-10T18:09:44.470Z,11.40
2022-10-10T18:12:13.178Z,11.30
2022-10-10T18:14:41.353Z,11.30
2022-10-10T18:17:09.530Z,11.20
2022-10-10T18:19:37.973Z,11.20
2022-10-10T18:22:07.592Z,11.20
2022-10-10T18:24:37.080Z,11.10
2022-10-10T18:27:05.266Z,11.00
2022-10-10T18:29:33.294Z,10.90
2022-10-10T18:32:01.323Z,10.90
2022-10-10T18:34:29.453Z,10.90
2022-10-10T18:36:57.558Z,10.80
2022-10-10T18:39:29.446Z,10.80
2022-10-10T18:42:01.793Z,10.70
2022-10-10T18:44:30.285Z,10.60
2022-10-10T18:46:58.393Z,10.60
2022-10-10T18:49:27.308Z,10.50
2022-10-10T18:51:55.525Z,10.50
2022-10-10T18:54:23.834Z,10.50
2022-10-10T18:56:51.801Z,10.40
2022-10-10T18:59:22.864Z,10.40
2022-10-10T19:01:52.463Z,10.40
2022-10-10T19:04:21.517Z,10.30
2022-10-10T19:06:56.033Z,10.30
2022-10-10T19:09:25.763Z,10.30
2022-10-10T19:11:53.999Z,10.30
2022-10-10T19:14:23.644Z,10.20
2022-10-10T19:16:51.844Z,10.20
2022-10-10T19:19:21.161Z,10.20
2022-10-10T19:21:50.135Z,10.10
2022-10-10T19:24:21.546Z,10.10
2022-10-10T19:26:56.739Z,10.10
2022-10-10T19:29:27.304Z,10.10
2022-10-10T19:31:55.990Z,10.00
2022-10-10T19:34:25.122Z,9.90
2022-10-10T19:36:53.576Z,9.90
2022-10-10T19:39:22.507Z,9.90
2022-10-10T19:41:50.788Z,9.90
2022-10-10T19:44:18.940Z,9.80
2022-10-10T19:46:48.557Z,9.80
2022-10-10T19:49:16.880Z,9.80
2022-10-10T19:51:45.432Z,9.70
2022-10-10T19:54:13.489Z,9.70
2022-10-10T19:56:41.565Z,9.70
2022-10-10T19:59:10.113Z,9.60
2022-10-10T20:01:38.299Z,9.60
2022-10-10T20:04:07.841Z,9.60
2022-10-10T20:06:36.039Z,9.60
2022-10-10T20:09:08.367Z,9.50
2022-10-10T20:11:39.094Z,9.50
2022-10-10T20:14:07.175Z,9.50
2022-10-10T20:16:35.492Z,9.40
2022-10-10T20:19:03.514Z,9.50
2022-10-10T20:21:34.588Z,9.40
2022-10-10T20:24:05.903Z,9.40
2022-10-10T20:26:35.201Z,9.30
2022-10-10T20:29:04.034Z,9.30
2022-10-10T20:31:35.093Z,9.30
2022-10-10T20:34:05.249Z,9.30
2022-10-10T20:36:35.984Z,9.30
2022-10-10T20:39:07.803Z,9.20
2022-10-10T20:41:37.828Z,9.20
2022-10-10T20:44:07.858Z,9.10
2022-10-10T20:46:38.668Z,9.10
2022-10-10T20:49:08.585Z,9.10
2022-10-10T20:51:38.716Z,9.00
2022-10-10T20:54:08.007Z,9.00
2022-10-10T20:56:36.911Z,9.00
2022-10-10T20:59:05.246Z,8.90
2022-10-10T21:01:33.291Z,8.90
2022-10-10T21:04:02.045Z,8.90
2022-10-10T21:06:32.142Z,8.90
2022-10-10T21:09:03.378Z,8.80
2022-10-10T21:11:31.677Z,8.80
2022-10-10T21:14:01.291Z,8.80
2022-10-10T21:16:31.725Z,8.80
2022-10-10T21:19:00.782Z,8.70
2022-10-10T21:21:30.854Z,8.70
2022-10-10T21:23:59.535Z,8.70
2022-10-10T21:26:30.450Z,8.70
2022-10-10T21:29:00.786Z,8.60
2022-10-10T21:31:30.965Z,8.60
2022-10-10T21:34:01.596Z,8.60
2022-10-10T21:36:30.728Z,8.60
2022-10-10T21:38:59.415Z,8.60
2022-10-10T21:41:29.372Z,8.60
2022-10-10T21:43:58.929Z,8.50
2022-10-10T21:46:34.813Z,8.50
2022-10-10T21:49:06.153Z,8.50
2022-10-10T21:51:37.903Z,8.40
2022-10-10T21:54:06.805Z,8.40
2022-10-10T21:56:36.533Z,8.40
2022-10-10T21:59:05.316Z,8.40
2022-10-10T22:01:33.694Z,8.40
2022-10-10T22:04:03.038Z,8.40
2022-10-10T22:06:31.872Z,8.30
2022-10-10T22:09:01.899Z,8.30
2022-10-10T22:11:32.029Z,8.30
2022-10-10T22:14:03.244Z,8.30
2022-10-10T22:16:31.584Z,8.30
2022-10-10T22:19:00.431Z,8.30
2022-10-10T22:21:31.771Z,8.30
2022-10-10T22:24:01.595Z,8.20
2022-10-10T22:26:29.940Z,8.20
2022-10-10T22:28:58.431Z,8.20
2022-10-10T22:31:29.119Z,8.20
2022-10-10T22:33:57.563Z,8.10
2022-10-10T22:36:25.601Z,8.10
2022-10-10T22:38:53.925Z,8.10
2022-10-10T22:41:21.951Z,8.10
2022-10-10T22:43:50.652Z,8.10
2022-10-10T22:46:19.112Z,8.10
2022-10-10T22:48:48.758Z,8.00
2022-10-10T22:51:18.969Z,8.00
2022-10-10T22:53:48.965Z,8.00
2022-10-10T22:56:19.749Z,8.00
2022-10-10T22:58:48.518Z,8.00
2022-10-10T23:01:18.992Z,7.90
2022-10-10T23:03:48.876Z,7.90
2022-10-10T23:06:17.346Z,7.90
2022-10-10T23:08:45.596Z,7.90
2022-10-10T23:11:13.681Z,7.90
2022-10-10T23:13:42.005Z,7.90
2022-10-10T23:16:10.910Z,7.90
2022-10-10T23:18:39.188Z,7.90
2022-10-10T23:21:08.619Z,7.80
2022-10-10T23:23:36.885Z,7.80
2022-10-10T23:26:07.623Z,7.80
2022-10-10T23:28:37.167Z,7.80
2022-10-10T23:31:08.535Z,7.80
2022-10-10T23:33:37.322Z,7.80
2022-10-10T23:36:09.255Z,7.80
2022-10-10T23:38:37.908Z,7.70
2022-10-10T23:41:06.289Z,7.70
2022-10-10T23:43:34.262Z,7.70
2022-10-10T23:46:02.618Z,7.70
2022-10-10T23:48:30.916Z,7.70
2022-10-10T23:50:59.240Z,7.70
2022-10-10T23:53:28.608Z,7.70
2022-10-10T23:55:56.782Z,7.70
2022-10-10T23:58:24.807Z,7.60
